Time;durP1;ratioP1;P1;durP2;ratioP2;P2;SDS_P1;SDS_P2;PMS_P1;PMS_P2;Temp;Humidity;BMP_temperature;BMP_pressure;BME280_temperature;BME280_humidity;BME280_pressure;Samples;Min_cycle;Max_cycle;Signal;HPM_P1;HPM_P2
2022/12/17 13:07:20;;;;;;;25.57;10.70;;;-3.80;99.90;;;;;;4992421;28;20037;-65
2022/12/17 13:09:49;;;;;;;23.80;10.60;;;-3.90;99.90;;;;;;5002267;28;20022;-66
2022/12/17 13:12:45;;;;;;;28.53;12.17;;;-3.90;99.90;;;;;;5009030;28;20435;-67
2022/12/17 13:15:25;;;;;;;28.87;9.93;;;-3.80;99.90;;;;;;5002547;28;20034;-68
2022/12/17 13:17:54;;;;;;;27.97;11.80;;;-3.80;99.90;;;;;;5010336;28;20038;-66
2022/12/17 13:20:29;;;;;;;25.47;11.13;;;-3.70;99.90;;;;;;4997623;28;20034;-66
2022/12/17 13:23:10;;;;;;;29.50;10.97;;;-3.70;99.90;;;;;;5010891;28;20038;-67
2022/12/17 13:25:36;;;;;;;26.77;10.93;;;-3.70;99.90;;;;;;5011645;28;20021;-66
2022/12/17 13:28:04;;;;;;;30.50;11.67;;;-3.60;99.90;;;;;;5009103;28;20392;-66
2022/12/17 13:30:37;;;;;;;32.80;13.40;;;-3.60;99.90;;;;;;5027738;28;20022;-64
2022/12/17 13:33:30;;;;;;;35.53;11.45;;;-3.60;99.90;;;;;;5011224;28;20022;-67
2022/12/17 13:36:18;;;;;;;25.53;10.83;;;-3.60;99.90;;;;;;5010199;28;20057;-67
2022/12/17 13:38:56;;;;;;;29.53;11.13;;;-3.50;99.90;;;;;;5011033;28;20029;-67
2022/12/17 13:41:30;;;;;;;22.23;10.00;;;-3.50;99.90;;;;;;5012303;28;20022;-67
2022/12/17 13:44:00;;;;;;;27.33;12.40;;;-3.50;99.90;;;;;;5007000;28;20436;-67
2022/12/17 13:46:40;;;;;;;25.43;10.43;;;-3.60;99.90;;;;;;5012413;28;20072;-67
2022/12/17 13:49:17;;;;;;;36.77;11.97;;;-3.50;99.90;;;;;;5010168;28;20073;-67
2022/12/17 13:51:42;;;;;;;31.17;13.00;;;-3.60;99.90;;;;;;5008738;28;20018;-66
2022/12/17 13:54:15;;;;;;;32.70;13.23;;;-3.60;99.90;;;;;;5010415;28;20088;-66
2022/12/17 13:56:41;;;;;;;33.40;14.40;;;-3.60;99.90;;;;;;5001063;28;20029;-66
2022/12/17 13:59:19;;;;;;;38.13;14.70;;;-3.60;99.90;;;;;;4999267;28;20443;-66
2022/12/17 14:01:50;;;;;;;40.87;16.83;;;-3.60;99.90;;;;;;4998649;28;20054;-67
2022/12/17 14:04:24;;;;;;;35.13;14.93;;;-3.60;99.90;;;;;;5007844;28;20076;-66
2022/12/17 14:06:51;;;;;;;42.53;15.25;;;-3.60;99.90;;;;;;5016080;28;20467;-67
2022/12/17 14:09:19;;;;;;;37.73;15.43;;;-3.60;99.90;;;;;;5021603;28;20061;-67
2022/12/17 14:14:41;;;;;;;33.67;14.68;;;-3.60;99.90;;;;;;5009434;28;20040;-65
2022/12/17 14:17:19;;;;;;;47.03;16.80;;;-3.60;99.90;;;;;;5015414;28;20037;-66
2022/12/17 14:19:47;;;;;;;50.73;19.03;;;-3.70;99.90;;;;;;5011984;28;20108;-67
2022/12/17 14:22:23;;;;;;;46.40;17.90;;;-3.70;99.90;;;;;;5011770;28;20037;-67
2022/12/17 14:24:49;;;;;;;49.73;17.10;;;-3.80;99.90;;;;;;5005825;28;20057;-66
2022/12/17 14:27:24;;;;;;;41.10;17.17;;;-3.80;99.90;;;;;;5011215;28;20037;-67
2022/12/17 14:29:49;;;;;;;34.67;14.07;;;-3.80;99.90;;;;;;4999103;28;20112;-66
2022/12/17 14:32:29;;;;;;;37.37;15.43;;;-3.80;99.90;;;;;;5007433;28;20049;-66
2022/12/17 14:34:54;;;;;;;34.83;13.10;;;-3.80;99.90;;;;;;5004766;28;20060;-68
2022/12/17 14:37:23;;;;;;;26.53;11.50;;;-3.90;99.90;;;;;;5011263;28;20111;-67
2022/12/17 14:39:49;;;;;;;29.27;12.63;;;-4.00;99.90;;;;;;4996493;28;20495;-67
2022/12/17 14:42:27;;;;;;;30.87;12.47;;;-3.90;99.90;;;;;;5011041;28;20515;-67
2022/12/17 14:44:58;;;;;;;36.70;14.93;;;-3.90;99.90;;;;;;5009829;28;20037;-67
2022/12/17 14:47:25;;;;;;;31.27;12.83;;;-3.90;99.90;;;;;;5009063;28;20508;-67
2022/12/17 14:50:11;;;;;;;33.03;12.30;;;-4.00;99.90;;;;;;5010394;28;20025;-67
2022/12/17 14:52:41;;;;;;;27.90;12.57;;;-4.00;99.90;;;;;;5007713;28;20022;-68
2022/12/17 14:55:27;;;;;;;32.10;12.03;;;-4.00;99.90;;;;;;5006774;28;20028;-67
2022/12/17 14:58:06;;;;;;;31.47;11.63;;;-4.10;99.90;;;;;;5006041;28;20030;-67
2022/12/17 15:00:33;;;;;;;27.70;9.90;;;-4.10;99.90;;;;;;5003027;28;20040;-65
2022/12/17 15:02:58;;;;;;;29.90;11.93;;;-4.20;99.90;;;;;;5014214;28;20036;-67
2022/12/17 15:05:24;;;;;;;32.70;11.57;;;-4.20;99.90;;;;;;5015440;28;20399;-67
2022/12/17 15:07:50;;;;;;;33.10;11.40;;;-4.30;99.90;;;;;;5010343;28;20022;-67
2022/12/17 15:10:19;;;;;;;31.67;11.53;;;-4.40;99.90;;;;;;5010569;28;20013;-66
2022/12/17 15:12:46;;;;;;;31.27;11.67;;;-4.40;99.90;;;;;;5008596;28;20395;-68
2022/12/17 15:15:13;;;;;;;28.07;10.97;;;-4.40;99.90;;;;;;5011278;28;20392;-68
2022/12/17 15:17:39;;;;;;;28.83;11.97;;;-4.50;99.90;;;;;;5003195;28;20026;-69
2022/12/17 15:20:05;;;;;;;28.10;10.93;;;-4.50;99.90;;;;;;5009735;28;20033;-66
2022/12/17 15:22:31;;;;;;;24.70;10.47;;;-4.60;99.90;;;;;;5010636;28;20029;-64
2022/12/17 15:24:56;;;;;;;32.47;12.10;;;-4.70;99.90;;;;;;5011102;28;20045;-65
2022/12/17 15:27:22;;;;;;;28.33;11.40;;;-4.70;99.90;;;;;;5010069;28;20396;-67
2022/12/17 15:29:47;;;;;;;31.07;12.20;;;-4.80;99.90;;;;;;5010550;28;20022;-68
2022/12/17 15:32:21;;;;;;;29.20;10.90;;;-4.70;99.90;;;;;;5008161;28;20233;-66
2022/12/17 15:34:47;;;;;;;33.95;12.25;;;-4.80;99.90;;;;;;5009139;28;20037;-66
2022/12/17 15:37:13;;;;;;;23.93;10.73;;;-4.80;99.90;;;;;;5010193;28;20022;-67
2022/12/17 15:39:39;;;;;;;26.90;11.63;;;-4.80;99.90;;;;;;4997495;28;20062;-67
2022/12/17 15:44:48;;;;;;;26.55;11.40;;;-5.00;99.90;;;;;;5006169;28;20517;-67
2022/12/17 15:47:14;;;;;;;23.27;11.10;;;-5.10;99.90;;;;;;5006145;28;20034;-66
2022/12/17 15:49:39;;;;;;;30.73;12.93;;;-5.20;99.90;;;;;;5004212;28;20463;-66
2022/12/17 15:52:05;;;;;;;30.53;11.17;;;-5.20;99.90;;;;;;5006210;28;20041;-67
2022/12/17 15:54:31;;;;;;;34.97;12.47;;;-5.20;99.90;;;;;;5008094;28;20105;-64
2022/12/17 15:56:57;;;;;;;25.97;10.33;;;-5.20;99.90;;;;;;5008217;28;20377;-65
2022/12/17 15:59:23;;;;;;;26.03;11.70;;;-5.30;99.90;;;;;;5009843;28;20048;-66
2022/12/17 16:01:48;;;;;;;27.83;10.63;;;-5.20;99.90;;;;;;5008751;28;20085;-66
2022/12/17 16:04:14;;;;;;;29.23;11.37;;;-5.30;99.90;;;;;;5009167;28;20450;-67
2022/12/17 16:06:40;;;;;;;26.70;10.73;;;-5.30;99.90;;;;;;5008131;28;20026;-67
2022/12/17 16:09:05;;;;;;;27.63;10.10;;;-5.40;99.90;;;;;;5009960;28;20549;-67
2022/12/17 16:11:31;;;;;;;27.07;10.57;;;-5.40;99.90;;;;;;5009561;28;20080;-65
2022/12/17 16:13:56;;;;;;;36.60;12.13;;;-5.30;99.90;;;;;;5009724;28;20026;-67
2022/12/17 16:16:22;;;;;;;27.80;11.03;;;-5.20;99.90;;;;;;5009450;28;20029;-66
2022/12/17 16:18:48;;;;;;;26.53;11.60;;;-5.10;99.90;;;;;;5006588;28;20040;-66
2022/12/17 16:21:14;;;;;;;28.20;9.93;;;-5.20;99.90;;;;;;5008240;28;20536;-67
2022/12/17 16:23:39;;;;;;;25.37;11.57;;;-5.10;99.90;;;;;;5008413;28;20029;-67
2022/12/17 16:26:07;;;;;;;29.10;11.07;;;-5.10;99.90;;;;;;5009868;28;20033;-67
2022/12/17 16:28:34;;;;;;;26.43;11.43;;;-5.10;99.90;;;;;;5009699;28;20034;-63
2022/12/17 16:31:02;;;;;;;26.67;10.80;;;-5.10;99.90;;;;;;5005348;28;20038;-68
2022/12/17 16:33:36;;;;;;;26.13;10.60;;;-5.10;99.90;;;;;;5007301;28;20119;-66
2022/12/17 16:36:02;;;;;;;;;;;-5.20;99.90;;;;;;5006048;28;20026;-68
2022/12/17 16:38:28;;;;;;;24.50;10.37;;;-5.30;99.90;;;;;;5007044;28;20387;-65
2022/12/17 16:40:56;;;;;;;29.80;10.90;;;-5.20;99.90;;;;;;5002740;28;20071;-68
2022/12/17 16:43:22;;;;;;;28.23;10.00;;;-5.20;99.90;;;;;;5006617;28;20059;-67
2022/12/17 16:45:49;;;;;;;24.30;10.70;;;-5.20;99.90;;;;;;5006643;28;20034;-67
2022/12/17 16:48:16;;;;;;;26.17;11.07;;;-5.20;99.90;;;;;;5019785;28;20120;-67
2022/12/17 16:50:42;;;;;;;26.50;10.43;;;-5.30;99.90;;;;;;5004724;28;20040;-66
2022/12/17 16:53:08;;;;;;;26.53;11.20;;;-5.20;99.90;;;;;;5006560;28;20373;-66
2022/12/17 16:55:40;;;;;;;27.93;11.60;;;-5.30;99.90;;;;;;5013711;28;20117;-67
2022/12/17 16:58:05;;;;;;;30.80;12.40;;;-5.30;99.90;;;;;;5010097;28;20052;-67
2022/12/17 17:00:33;;;;;;;25.40;10.17;;;-5.40;99.90;;;;;;5012021;28;20029;-64
2022/12/17 17:02:58;;;;;;;22.17;10.50;;;-5.40;99.90;;;;;;5011870;28;20033;-67
2022/12/17 17:05:24;;;;;;;23.23;10.27;;;-5.40;99.90;;;;;;5010784;28;20399;-68
2022/12/17 17:07:49;;;;;;;31.10;11.27;;;-5.30;99.90;;;;;;5008163;28;20077;-67
2022/12/17 17:10:15;;;;;;;30.30;11.70;;;-5.20;99.90;;;;;;5009751;28;20041;-67
2022/12/17 17:12:40;;;;;;;26.37;11.00;;;-5.20;99.90;;;;;;5004107;28;20097;-68
2022/12/17 17:15:07;;;;;;;22.30;9.87;;;-5.20;99.90;;;;;;5011023;28;20106;-67
2022/12/17 17:17:32;;;;;;;25.43;10.37;;;-5.30;99.90;;;;;;5011381;28;20121;-68
2022/12/17 17:19:58;;;;;;;25.77;9.60;;;-5.40;99.90;;;;;;5009350;28;20105;-67
2022/12/17 17:22:23;;;;;;;26.37;10.37;;;-5.40;99.90;;;;;;5009004;28;20073;-66
2022/12/17 17:24:49;;;;;;;24.47;10.20;;;-5.30;99.90;;;;;;5011961;28;20049;-67
2022/12/17 17:27:14;;;;;;;23.47;9.83;;;-5.30;99.90;;;;;;5007852;28;20510;-67
2022/12/17 17:29:40;;;;;;;29.53;10.90;;;-5.30;99.90;;;;;;5009389;28;20029;-66
2022/12/17 17:32:05;;;;;;;23.30;9.73;;;-5.30;99.90;;;;;;5010841;28;20069;-66
2022/12/17 17:34:31;;;;;;;31.93;10.87;;;-5.20;99.90;;;;;;5008446;28;20455;-67
2022/12/17 17:36:56;;;;;;;26.13;10.53;;;-5.20;99.90;;;;;;5013211;28;20492;-67
2022/12/17 17:39:22;;;;;;;28.60;11.10;;;-5.40;99.90;;;;;;5012120;28;20040;-67
2022/12/17 17:41:48;;;;;;;28.90;11.70;;;-5.40;99.90;;;;;;5012988;28;20049;-66
2022/12/17 17:44:13;;;;;;;24.53;11.10;;;-5.30;99.90;;;;;;5010944;28;20048;-66
2022/12/17 17:46:40;;;;;;;26.03;10.77;;;-5.30;99.90;;;;;;5010573;28;20534;-68
2022/12/17 17:49:07;;;;;;;27.40;10.93;;;-5.20;99.90;;;;;;5016330;28;20034;-67
2022/12/17 17:51:40;;;;;;;26.00;10.40;;;-5.20;99.90;;;;;;5011086;28;20041;-67
2022/12/17 17:54:06;;;;;;;32.42;11.40;;;-5.40;99.90;;;;;;5021526;28;20490;-67
2022/12/17 17:56:33;;;;;;;23.77;10.50;;;-5.40;99.90;;;;;;5015556;28;20088;-65
2022/12/17 17:59:02;;;;;;;24.97;11.57;;;-5.40;99.90;;;;;;5017965;28;20556;-68
2022/12/17 18:01:30;;;;;;;24.47;9.77;;;-5.40;99.90;;;;;;5006456;28;20034;-67
2022/12/17 18:03:59;;;;;;;25.60;9.80;;;-5.40;99.90;;;;;;5019411;28;20521;-66
2022/12/17 18:06:25;;;;;;;25.27;10.53;;;-5.30;99.90;;;;;;5011417;28;20050;-68
2022/12/17 18:08:53;;;;;;;27.53;10.70;;;-5.20;99.90;;;;;;5007769;28;20500;-67
2022/12/17 18:11:20;;;;;;;26.87;10.33;;;-5.20;99.90;;;;;;5007054;28;20038;-68
2022/12/17 18:13:55;;;;;;;26.50;10.70;;;-5.30;99.90;;;;;;5009589;28;20033;-67
2022/12/17 18:16:32;;;;;;;39.23;11.63;;;-5.40;99.90;;;;;;5012089;28;20022;-68
2022/12/17 18:19:00;;;;;;;25.47;10.93;;;-5.30;99.90;;;;;;5011085;28;20033;-67
2022/12/17 18:21:28;;;;;;;25.77;11.30;;;-5.40;99.90;;;;;;5003919;28;20018;-68
2022/12/17 18:24:14;;;;;;;30.73;11.53;;;-5.40;99.90;;;;;;5006020;28;20048;-68
2022/12/17 18:26:41;;;;;;;27.80;11.10;;;-5.40;99.90;;;;;;5003969;28;20529;-66
2022/12/17 18:29:11;;;;;;;29.60;10.53;;;-5.40;99.90;;;;;;5005771;28;20487;-67
2022/12/17 18:31:37;;;;;;;22.23;9.80;;;-5.40;99.90;;;;;;5007057;28;20369;-67
2022/12/17 18:34:04;;;;;;;27.73;11.03;;;-5.40;99.90;;;;;;5008657;28;20747;-67
2022/12/17 18:36:34;;;;;;;31.87;12.30;;;-5.40;99.90;;;;;;5011524;28;20105;-66
2022/12/17 18:39:04;;;;;;;25.77;10.57;;;-5.40;99.90;;;;;;5011021;28;20381;-66
2022/12/17 18:44:16;;;;;;;30.67;10.23;;;-5.30;99.90;;;;;;5009643;28;20408;-66
2022/12/17 18:46:41;;;;;;;25.17;9.43;;;-5.30;99.90;;;;;;5010818;28;20042;-67
2022/12/17 18:49:11;;;;;;;26.53;9.83;;;-5.30;99.90;;;;;;5009175;28;20033;-67
2022/12/17 18:51:38;;;;;;;22.87;8.83;;;-5.30;99.90;;;;;;5005937;28;20022;-66
2022/12/17 18:54:07;;;;;;;21.57;9.10;;;-5.40;99.90;;;;;;5011288;28;20037;-66
2022/12/17 18:56:34;;;;;;;27.27;11.60;;;-5.40;99.90;;;;;;5008809;28;20136;-64
2022/12/17 18:59:01;;;;;;;33.43;12.83;;;-5.50;99.90;;;;;;5007074;28;20092;-67
2022/12/17 19:01:29;;;;;;;39.50;14.10;;;-5.50;99.90;;;;;;5004005;28;20045;-66
2022/12/17 19:03:55;;;;;;;30.43;13.00;;;-5.50;99.90;;;;;;5008650;28;20046;-67
2022/12/17 19:06:22;;;;;;;27.93;12.23;;;-5.40;99.90;;;;;;5007809;28;20030;-66
2022/12/17 19:08:48;;;;;;;34.20;12.30;;;-5.50;99.90;;;;;;5002378;28;20034;-66
2022/12/17 19:11:16;;;;;;;30.80;11.13;;;-5.50;99.90;;;;;;5008548;28;20034;-67
2022/12/17 19:13:43;;;;;;;25.57;9.83;;;-5.60;99.90;;;;;;5002270;28;20032;-67
2022/12/17 19:16:12;;;;;;;21.77;9.33;;;-5.50;99.90;;;;;;5007289;28;20470;-68
2022/12/17 19:18:37;;;;;;;37.77;14.23;;;-5.50;99.90;;;;;;5011191;28;20470;-66
2022/12/17 19:21:05;;;;;;;30.53;13.33;;;-5.50;99.90;;;;;;5011017;28;20049;-67
2022/12/17 19:23:31;;;;;;;31.70;12.73;;;-5.50;99.90;;;;;;5009745;28;20034;-66
2022/12/17 19:26:05;;;;;;;24.73;10.00;;;-5.60;99.90;;;;;;5015877;28;20399;-67
2022/12/17 19:28:31;;;;;;;25.98;10.43;;;-5.60;99.90;;;;;;5005605;28;20041;-66
2022/12/17 19:30:57;;;;;;;36.47;13.97;;;-5.60;99.90;;;;;;5000586;28;20506;-66
2022/12/17 19:33:22;;;;;;;28.27;10.20;;;-5.60;99.90;;;;;;4998129;28;20022;-66
2022/12/17 19:35:48;;;;;;;28.27;11.07;;;-5.60;99.90;;;;;;5012705;28;20022;-66
2022/12/17 19:38:13;;;;;;;22.57;9.20;;;-5.70;99.90;;;;;;5016577;28;20625;-66
2022/12/17 19:40:39;;;;;;;21.87;8.90;;;-5.70;99.90;;;;;;5011628;28;20028;-67
2022/12/17 19:43:05;;;;;;;19.80;8.50;;;-5.70;99.90;;;;;;5007214;28;20026;-67
2022/12/17 19:45:31;;;;;;;29.47;10.57;;;-5.60;99.90;;;;;;5010344;28;20093;-66
2022/12/17 19:47:56;;;;;;;22.73;8.90;;;-5.60;99.90;;;;;;4999479;28;20084;-67
2022/12/17 19:50:22;;;;;;;21.87;9.47;;;-5.60;99.90;;;;;;5012185;28;20041;-66
2022/12/17 19:52:47;;;;;;;23.23;9.13;;;-5.60;99.90;;;;;;4997205;28;20447;-67
2022/12/17 19:55:13;;;;;;;32.77;11.50;;;-5.60;99.90;;;;;;4994545;28;20022;-67
2022/12/17 19:57:39;;;;;;;27.40;9.53;;;-5.60;99.90;;;;;;5011408;28;20515;-67
2022/12/17 20:00:05;;;;;;;31.30;12.43;;;-5.60;99.90;;;;;;5013091;28;20034;-67
2022/12/17 20:02:30;;;;;;;21.60;9.07;;;-5.50;99.90;;;;;;5016363;28;20627;-66
2022/12/17 20:04:56;;;;;;;23.80;9.13;;;-5.40;99.90;;;;;;5018489;28;20108;-67
2022/12/17 20:07:22;;;;;;;25.50;9.23;;;-5.30;99.90;;;;;;5012174;28;20033;-67
2022/12/17 20:09:47;;;;;;;25.73;8.83;;;-5.30;99.90;;;;;;5008921;28;20032;-67
2022/12/17 20:12:13;;;;;;;33.67;11.90;;;-5.20;99.90;;;;;;5012637;28;20129;-67
2022/12/17 20:14:38;;;;;;;19.90;9.23;;;-5.30;99.90;;;;;;5007210;28;20369;-68
2022/12/17 20:17:04;;;;;;;18.17;8.00;;;-5.20;99.90;;;;;;5005317;28;20040;-67
2022/12/17 20:19:31;;;;;;;22.83;8.83;;;-5.20;99.90;;;;;;5007467;28;20049;-67
2022/12/17 20:21:59;;;;;;;21.23;7.87;;;-5.20;99.90;;;;;;4994782;28;20054;-68
2022/12/17 20:24:24;;;;;;;19.67;7.37;;;-5.20;99.90;;;;;;5017268;28;20101;-67
2022/12/17 20:26:52;;;;;;;25.63;8.87;;;-5.20;99.90;;;;;;5015086;28;20153;-67
2022/12/17 20:29:18;;;;;;;20.10;8.43;;;-5.20;99.90;;;;;;5021868;28;20056;-66
2022/12/17 20:31:44;;;;;;;15.13;6.77;;;-5.30;99.90;;;;;;5007729;28;20026;-68
2022/12/17 20:34:12;;;;;;;17.23;7.30;;;-5.20;99.90;;;;;;5009712;28;20030;-68
2022/12/17 20:36:39;;;;;;;18.70;8.77;;;-5.20;99.90;;;;;;5013312;28;20104;-67
2022/12/17 20:39:05;;;;;;;19.67;7.73;;;-5.20;99.90;;;;;;5012705;28;20057;-67
2022/12/17 20:41:32;;;;;;;15.80;7.20;;;-5.20;99.90;;;;;;5012369;28;20030;-66
2022/12/17 20:44:02;;;;;;;21.43;7.90;;;-5.30;99.90;;;;;;5012760;28;20026;-68
2022/12/17 20:46:28;;;;;;;17.43;6.90;;;-5.30;99.90;;;;;;5008631;28;20125;-67
2022/12/17 20:48:53;;;;;;;14.90;6.73;;;-5.30;99.90;;;;;;5004878;28;20520;-66
2022/12/17 20:51:25;;;;;;;25.80;9.27;;;-5.30;99.90;;;;;;5010780;28;20026;-68
2022/12/17 20:53:52;;;;;;;21.60;8.60;;;-5.40;99.90;;;;;;5010887;28;20033;-67
2022/12/17 20:56:21;;;;;;;24.37;6.77;;;-5.40;99.90;;;;;;5012129;28;20033;-67
2022/12/17 20:58:50;;;;;;;18.97;7.57;;;-5.40;99.90;;;;;;5009685;28;20030;-68
2022/12/17 21:01:18;;;;;;;18.90;8.47;;;-5.30;99.90;;;;;;5008925;28;20586;-67
2022/12/17 21:03:44;;;;;;;21.63;9.03;;;-5.30;99.90;;;;;;5010307;28;20026;-67
2022/12/17 21:06:16;;;;;;;12.87;6.23;;;-5.30;99.90;;;;;;5013253;28;20033;-68
2022/12/17 21:08:47;;;;;;;15.10;7.67;;;-5.30;99.90;;;;;;5009763;28;20026;-67
2022/12/17 21:11:12;;;;;;;13.33;6.50;;;-5.30;99.90;;;;;;5010536;28;20018;-68
2022/12/17 21:13:38;;;;;;;25.93;7.73;;;-5.30;99.90;;;;;;5003893;28;20435;-67
2022/12/17 21:16:06;;;;;;;17.63;8.27;;;-5.30;99.90;;;;;;5008410;28;20037;-67
2022/12/17 21:18:32;;;;;;;26.77;9.97;;;-5.30;99.90;;;;;;5002872;28;20032;-67
2022/12/17 21:21:06;;;;;;;19.53;8.17;;;-5.30;99.90;;;;;;5010325;28;20442;-68
2022/12/17 21:23:33;;;;;;;18.77;7.23;;;-5.40;99.90;;;;;;5010476;28;20030;-68
2022/12/17 21:26:03;;;;;;;16.07;6.87;;;-5.40;99.90;;;;;;5013234;28;21522;-68
2022/12/17 21:28:30;;;;;;;21.20;8.30;;;-5.40;99.90;;;;;;5009778;28;20510;-67
2022/12/17 21:30:56;;;;;;;16.80;6.97;;;-5.40;99.90;;;;;;5024038;28;20033;-67
2022/12/17 21:33:22;;;;;;;20.63;7.53;;;-5.40;99.90;;;;;;5000506;28;20050;-67
2022/12/17 21:35:47;;;;;;;22.67;8.83;;;-5.40;99.90;;;;;;5005933;28;20440;-68
2022/12/17 21:38:13;;;;;;;17.30;7.27;;;-5.40;99.90;;;;;;5013251;28;20097;-67
2022/12/17 21:40:39;;;;;;;19.20;8.37;;;-5.40;99.90;;;;;;5009298;28;20110;-66
2022/12/17 21:43:06;;;;;;;18.73;6.83;;;-5.50;99.90;;;;;;5009062;28;20034;-67
2022/12/17 21:45:37;;;;;;;18.40;7.33;;;-5.50;99.90;;;;;;5012661;28;20024;-68
2022/12/17 21:48:07;;;;;;;19.17;7.23;;;-5.40;99.90;;;;;;5002099;28;20064;-68
2022/12/17 21:50:32;;;;;;;22.13;6.77;;;-5.40;99.90;;;;;;5007947;28;20049;-68
2022/12/17 21:52:58;;;;;;;17.03;6.87;;;-5.40;99.90;;;;;;5012083;28;20400;-67
2022/12/17 21:55:24;;;;;;;17.60;6.73;;;-5.30;99.90;;;;;;5010331;28;20022;-68
2022/12/17 21:57:50;;;;;;;15.23;6.90;;;-5.30;99.90;;;;;;5011968;28;20399;-67
2022/12/17 22:00:16;;;;;;;21.20;7.67;;;-5.30;99.90;;;;;;5013941;28;20060;-68
2022/12/17 22:02:42;;;;;;;16.87;7.60;;;-5.30;99.90;;;;;;5009677;28;20070;-68
2022/12/17 22:05:07;;;;;;;17.07;7.90;;;-5.30;99.90;;;;;;5011389;28;20499;-68
2022/12/17 22:07:33;;;;;;;17.73;6.50;;;-5.30;99.90;;;;;;5011364;28;20038;-66
2022/12/17 22:09:59;;;;;;;19.57;7.27;;;-5.20;99.90;;;;;;5010323;28;20084;-68
2022/12/17 22:15:09;;;;;;;12.35;5.32;;;-5.20;99.90;;;;;;5012033;28;20061;-68
2022/12/17 22:17:36;;;;;;;18.70;6.87;;;-5.10;99.90;;;;;;5018897;28;20038;-67
2022/12/17 22:20:03;;;;;;;17.57;7.37;;;-5.10;99.90;;;;;;5010944;28;20099;-68
2022/12/17 22:22:29;;;;;;;17.67;6.57;;;-5.10;99.90;;;;;;5010934;28;20527;-67
2022/12/17 22:24:55;;;;;;;16.70;7.03;;;-5.00;99.90;;;;;;5009843;28;20036;-68
2022/12/17 22:27:22;;;;;;;17.27;7.03;;;-5.00;99.90;;;;;;5010904;28;20026;-68
2022/12/17 22:35:16;;;;;;;14.90;6.15;;;-5.20;99.90;;;;;;5010554;28;20117;-67
2022/12/17 22:37:41;;;;;;;16.63;6.60;;;-5.20;99.90;;;;;;5004987;28;20109;-68
2022/12/17 22:40:08;;;;;;;15.87;6.43;;;-5.20;99.90;;;;;;5009278;28;20703;-67
2022/12/17 22:45:18;;;;;;;18.60;7.13;;;-5.20;99.90;;;;;;5016743;28;20084;-68
2022/12/17 22:47:43;;;;;;;15.33;6.67;;;-5.30;99.90;;;;;;5020358;28;20108;-67
2022/12/17 22:50:09;;;;;;;15.87;6.10;;;-5.30;99.90;;;;;;5011868;28;20026;-67
2022/12/17 22:52:35;;;;;;;19.80;7.60;;;-5.40;99.90;;;;;;5011354;28;20036;-65
2022/12/17 22:55:01;;;;;;;21.27;6.80;;;-5.40;99.90;;;;;;5011460;28;20488;-67
2022/12/17 22:57:26;;;;;;;17.00;7.17;;;-5.30;99.90;;;;;;5009180;28;20025;-68
2022/12/17 22:59:52;;;;;;;17.23;6.70;;;-5.30;99.90;;;;;;5008304;28;20404;-68
2022/12/17 23:02:17;;;;;;;17.80;6.80;;;-5.30;99.90;;;;;;5009686;28;20030;-67
2022/12/17 23:04:43;;;;;;;18.53;7.33;;;-5.30;99.90;;;;;;5007722;28;20041;-67
2022/12/17 23:07:08;;;;;;;15.63;6.33;;;-5.30;99.90;;;;;;5003530;28;20399;-68
2022/12/17 23:09:34;;;;;;;13.70;6.70;;;-5.20;99.90;;;;;;5005255;28;20534;-67
2022/12/17 23:12:49;;;;;;;20.50;6.73;;;-5.20;99.90;;;;;;5003567;28;20018;-67
2022/12/17 23:14:45;;;;;;;18.17;7.17;;;-5.30;99.90;;;;;;4996777;28;20034;-67
2022/12/17 23:17:11;;;;;;;14.73;6.73;;;-5.20;99.90;;;;;;5003277;28;20038;-67
2022/12/17 23:19:36;;;;;;;14.03;6.73;;;-5.30;99.90;;;;;;5000928;28;20439;-67
2022/12/17 23:22:02;;;;;;;13.33;7.53;;;-5.30;99.90;;;;;;5004757;28;20030;-67
2022/12/17 23:24:28;;;;;;;15.83;7.13;;;-5.30;99.90;;;;;;5001545;28;20038;-67
2022/12/17 23:26:54;;;;;;;18.43;7.07;;;-5.30;99.90;;;;;;5007578;28;20454;-68
2022/12/17 23:29:19;;;;;;;15.67;5.90;;;-5.30;99.90;;;;;;4997758;28;20065;-67
2022/12/17 23:31:45;;;;;;;15.03;6.50;;;-5.30;99.90;;;;;;4995250;28;20550;-67
2022/12/17 23:34:11;;;;;;;16.70;6.27;;;-5.30;99.90;;;;;;4999808;28;20106;-68
2022/12/17 23:36:36;;;;;;;14.93;6.70;;;-5.40;99.90;;;;;;4994399;28;20120;-66
2022/12/17 23:39:03;;;;;;;14.47;5.87;;;-5.50;99.90;;;;;;5007443;28;20034;-67
2022/12/17 23:41:29;;;;;;;17.47;6.67;;;-5.60;99.90;;;;;;4997640;28;20531;-66
2022/12/17 23:43:56;;;;;;;16.60;6.73;;;-5.50;99.90;;;;;;4995920;28;20034;-67
2022/12/17 23:46:23;;;;;;;14.47;6.20;;;-5.60;99.90;;;;;;4996308;28;20014;-68
2022/12/17 23:48:49;;;;;;;17.27;6.77;;;-5.60;99.90;;;;;;5001829;28;20913;-68
2022/12/17 23:51:17;;;;;;;20.07;7.43;;;-5.60;99.90;;;;;;5002961;28;20435;-68
2022/12/17 23:53:42;;;;;;;17.83;7.33;;;-5.70;99.90;;;;;;5010264;28;20060;-67
2022/12/17 23:56:16;;;;;;;17.30;7.43;;;-5.70;99.90;;;;;;4991657;28;20050;-66
2022/12/17 23:58:43;;;;;;;16.70;8.07;;;-5.70;99.90;;;;;;4998833;28;20088;-67
